Time;durP1;ratioP1;P1;durP2;ratioP2;P2;SDS_P1;SDS_P2;PMS_P1;PMS_P2;Temp;Humidity;BMP_temperature;BMP_pressure;BME280_temperature;BME280_humidity;BME280_pressure;Samples;Min_cycle;Max_cycle;Signal;HPM_P1;HPM_P2
2021/07/24 00:12:36;;;;;;;13.25;9.10;;;;;;;17.92;100.00;100480.91;713877;1203;115755;-74
2021/07/24 00:27:38;;;;;;;14.25;8.20;;;;;;;17.79;100.00;100470.86;713593;1206;114605;-74
2021/07/24 00:42:46;;;;;;;20.00;10.83;;;;;;;17.54;100.00;100480.83;713623;1180;114435;-74
2021/07/24 00:57:48;;;;;;;19.90;10.65;;;;;;;17.35;100.00;100483.93;713713;1202;115881;-73
2021/07/24 01:12:50;;;;;;;18.13;10.03;;;;;;;17.12;100.00;100485.53;713871;1205;114560;-74
2021/07/24 01:27:53;;;;;;;13.67;9.07;;;;;;;17.09;100.00;100483.24;713657;1202;115025;-74
2021/07/24 01:42:58;;;;;;;12.48;8.68;;;;;;;16.93;100.00;100492.09;713684;1202;114543;-74
2021/07/24 01:58:03;;;;;;;19.65;11.15;;;;;;;16.73;100.00;100481.02;713815;1202;114325;-73
2021/07/24 02:13:05;;;;;;;12.83;8.83;;;;;;;16.58;100.00;100475.61;713791;1200;114545;-74
2021/07/24 02:28:08;;;;;;;17.15;10.10;;;;;;;16.46;100.00;100464.55;713719;1203;114799;-74
2021/07/24 02:43:10;;;;;;;17.80;10.70;;;;;;;16.30;100.00;100467.25;713858;1202;115038;-73
2021/07/24 02:58:12;;;;;;;22.10;12.80;;;;;;;16.16;100.00;100460.00;713713;1202;114984;-76
2021/07/24 03:13:14;;;;;;;16.30;10.20;;;;;;;16.15;100.00;100467.09;713572;1202;115877;-75
2021/07/24 03:28:17;;;;;;;24.90;13.13;;;;;;;16.09;100.00;100471.23;713884;1202;115840;-74
2021/07/24 03:43:19;;;;;;;26.50;13.13;;;;;;;16.09;100.00;100479.17;713785;1202;114950;-73
2021/07/24 03:58:21;;;;;;;17.20;11.27;;;;;;;16.26;100.00;100479.99;713812;1205;115259;-74
2021/07/24 04:13:23;;;;;;;20.80;12.40;;;;;;;16.64;100.00;100485.53;713911;1203;114552;-74
2021/07/24 04:28:25;;;;;;;24.95;14.78;;;;;;;17.09;100.00;100485.89;714086;1202;115518;-74
2021/07/24 04:43:28;;;;;;;23.55;13.00;;;;;;;17.43;100.00;100497.98;713819;1201;114642;-74
2021/07/24 04:58:31;;;;;;;16.15;11.40;;;;;;;17.90;100.00;100492.67;713786;1202;115702;-75
2021/07/24 05:13:33;;;;;;;36.38;18.43;;;;;;;18.55;100.00;100504.53;713740;1203;115420;-75
2021/07/24 05:28:35;;;;;;;41.03;20.20;;;;;;;19.10;100.00;100505.09;713754;1204;115336;-75
2021/07/24 05:43:37;;;;;;;25.03;15.73;;;;;;;19.93;100.00;100485.30;713792;1202;115814;-75
2021/07/24 05:58:39;;;;;;;17.18;10.45;;;;;;;20.62;100.00;100483.72;713762;1202;114932;-76
2021/07/24 06:13:41;;;;;;;17.30;8.77;;;;;;;21.33;100.00;100479.13;713884;1202;114729;-78
2021/07/24 06:28:44;;;;;;;15.35;8.43;;;;;;;22.14;100.00;100477.36;713968;1204;114755;-77
2021/07/24 06:43:46;;;;;;;11.30;6.70;;;;;;;22.63;100.00;100476.05;714299;1200;114655;-75
2021/07/24 06:58:48;;;;;;;8.98;6.23;;;;;;;23.20;100.00;100483.45;713814;1202;114262;-81
2021/07/24 07:13:50;;;;;;;13.10;6.43;;;;;;;23.96;100.00;100484.41;713906;1202;114116;-82
2021/07/24 07:28:54;;;;;;;11.80;6.30;;;;;;;24.34;100.00;100485.32;715656;1200;114857;-85
2021/07/24 07:43:57;;;;;;;12.20;5.33;;;;;;;25.38;97.65;100492.59;715076;1202;114830;-81
2021/07/24 07:58:59;;;;;;;9.20;5.70;;;;;;;25.51;93.37;100507.67;715204;1203;114105;-80
2021/07/24 08:14:01;;;;;;;7.97;4.60;;;;;;;25.77;91.21;100511.82;715726;1202;113806;-80
2021/07/24 08:29:04;;;;;;;6.43;4.30;;;;;;;25.24;88.29;100502.65;714857;1202;113877;-76
2021/07/24 08:44:06;;;;;;;9.45;4.13;;;;;;;27.09;83.69;100500.77;714019;1202;113831;-77
2021/07/24 08:59:11;;;;;;;9.07;3.53;;;;;;;28.44;79.20;100493.86;714223;1206;113665;-77
2021/07/24 09:14:13;;;;;;;11.30;4.20;;;;;;;29.38;72.73;100486.59;714505;1200;114515;-76
2021/07/24 09:29:18;;;;;;;6.70;4.00;;;;;;;30.69;69.91;100492.64;713883;1177;113217;-76
2021/07/24 09:44:30;;;;;;;7.25;3.60;;;;;;;30.35;65.86;100477.59;714272;1200;115352;-76
2021/07/24 09:59:33;;;;;;;4.13;3.47;;;;;;;30.83;65.40;100465.86;714574;1203;113825;-76
2021/07/24 10:14:36;;;;;;;4.13;3.07;;;;;;;30.92;63.71;100464.27;713651;1202;113905;-81
2021/07/24 10:29:52;;;;;;;5.20;3.40;;;;;;;29.28;65.07;100464.08;714322;1202;115507;-75
2021/07/24 10:44:54;;;;;;;5.10;3.83;;;;;;;29.52;65.38;100456.44;717124;1200;114094;-84
2021/07/24 11:00:28;;;;;;;4.93;3.43;;;;;;;30.98;63.52;100433.41;715031;1180;114928;-75
2021/07/24 11:15:38;;;;;;;6.03;3.53;;;;;;;31.50;60.59;100434.30;714118;1200;114162;-80
2021/07/24 11:30:41;;;;;;;6.17;3.10;;;;;;;32.01;58.91;100424.48;713783;1202;115130;-87
2021/07/24 11:45:43;;;;;;;4.90;3.60;;;;;;;33.24;57.61;100409.46;714103;1201;114664;-75
2021/07/24 12:00:50;;;;;;;7.97;4.03;;;;;;;31.44;56.99;100410.19;714111;1200;114766;-76
2021/07/24 12:15:54;;;;;;;6.87;3.50;;;;;;;30.89;58.35;100397.11;714980;1200;114956;-89
2021/07/24 12:31:15;;;;;;;4.80;3.40;;;;;;;32.97;57.63;100391.75;714998;1177;114071;-77
2021/07/24 12:46:18;;;;;;;4.97;3.40;;;;;;;32.83;56.24;100390.77;713929;1202;114519;-77
2021/07/24 13:01:20;;;;;;;5.00;3.17;;;;;;;32.87;53.47;100375.52;713726;1203;114210;-77
2021/07/24 13:16:23;;;;;;;4.78;2.98;;;;;;;32.58;53.71;100375.42;714445;1201;114661;-74
2021/07/24 13:31:25;;;;;;;4.53;3.57;;;;;;;30.76;55.13;100389.52;716435;1200;114099;-73
2021/07/24 13:46:29;;;;;;;7.10;4.63;;;;;;;32.35;55.47;100392.09;714794;1177;113993;-85
2021/07/24 14:01:31;;;;;;;4.55;3.50;;;;;;;30.83;55.58;100374.64;714868;1202;114967;-86
2021/07/24 14:16:34;;;;;;;5.45;3.48;;;;;;;31.23;55.04;100380.38;713921;1202;114584;-84
2021/07/24 14:31:36;;;;;;;7.23;5.58;;;;;;;31.47;54.75;100377.11;714131;1205;113996;-87
2021/07/24 14:46:39;;;;;;;5.00;3.58;;;;;;;32.62;52.57;100369.13;714219;1202;114032;-88
2021/07/24 15:01:41;;;;;;;4.95;3.20;;;;;;;32.97;51.55;100359.16;714344;1201;113547;-87
2021/07/24 15:16:44;;;;;;;8.47;5.97;;;;;;;32.54;51.12;100367.02;717583;1200;113156;-88
2021/07/24 15:31:53;;;;;;;5.73;3.87;;;;;;;31.64;52.10;100358.67;715615;1177;113848;-87
2021/07/24 15:46:55;;;;;;;6.80;5.00;;;;;;;30.16;54.55;100349.28;714130;1177;113868;-88
2021/07/24 16:01:57;;;;;;;6.78;3.65;;;;;;;29.46;56.46;100334.02;715634;1200;114959;-86
2021/07/24 16:17:01;;;;;;;9.55;5.80;;;;;;;29.03;57.98;100344.75;714765;1177;114124;-86
2021/07/24 16:32:03;;;;;;;10.93;6.40;;;;;;;29.20;59.14;100322.98;716116;1200;114911;-87
2021/07/24 16:47:07;;;;;;;19.83;8.73;;;;;;;29.09;59.76;100312.37;714898;1203;114058;-86
2021/07/24 17:02:09;;;;;;;13.47;7.47;;;;;;;28.74;61.17;100314.51;714649;1206;114752;-87
2021/07/24 17:17:12;;;;;;;15.40;8.45;;;;;;;28.11;61.54;100300.60;714708;1179;114310;-85
2021/07/24 17:32:15;;;;;;;22.10;11.70;;;;;;;27.80;63.15;100310.98;715591;1200;114226;-85
2021/07/24 17:47:17;;;;;;;14.33;8.50;;;;;;;27.41;64.53;100311.77;715901;1202;114430;-85
2021/07/24 18:02:19;;;;;;;20.68;13.65;;;;;;;27.11;64.85;100306.70;715866;1203;114696;-85
2021/07/24 18:17:22;;;;;;;24.28;11.85;;;;;;;26.54;65.91;100321.84;715164;1200;114310;-76
2021/07/24 18:32:25;;;;;;;19.17;11.20;;;;;;;25.85;67.93;100336.03;714299;1178;114296;-76
2021/07/24 18:47:27;;;;;;;14.50;9.60;;;;;;;25.03;70.17;100334.91;714236;1200;114808;-76
2021/07/24 19:02:29;;;;;;;13.87;7.33;;;;;;;24.36;73.12;100355.40;714173;1178;115186;-76
2021/07/24 19:17:32;;;;;;;21.60;13.40;;;;;;;23.74;75.55;100355.39;714589;1178;114460;-77
2021/07/24 19:32:34;;;;;;;19.30;9.45;;;;;;;23.31;78.36;100365.04;714389;1205;114202;-76
2021/07/24 19:47:39;;;;;;;15.13;6.53;;;;;;;22.62;81.88;100372.84;714164;1202;114148;-74
2021/07/24 20:02:42;;;;;;;24.68;13.53;;;;;;;22.37;84.48;100362.03;714161;1190;114373;-75
2021/07/24 20:17:45;;;;;;;10.90;6.40;;;;;;;22.07;85.55;100366.00;714401;1202;115258;-76
2021/07/24 20:32:47;;;;;;;12.10;7.55;;;;;;;21.82;87.94;100367.70;714906;1176;114153;-75
2021/07/24 20:47:50;;;;;;;27.78;14.60;;;;;;;21.51;91.04;100363.77;714723;1192;114211;-73
2021/07/24 21:02:53;;;;;;;28.88;16.23;;;;;;;21.24;93.03;100374.44;714982;1177;114766;-73
2021/07/24 21:17:56;;;;;;;18.80;11.97;;;;;;;21.01;94.67;100383.64;715040;1202;114740;-73
2021/07/24 21:32:58;;;;;;;22.65;11.73;;;;;;;20.80;96.07;100381.10;715206;1202;115189;-74
2021/07/24 21:48:01;;;;;;;17.20;9.10;;;;;;;20.56;97.22;100391.23;714476;1177;114420;-73
2021/07/24 22:03:03;;;;;;;9.20;6.18;;;;;;;20.69;96.48;100396.64;714684;1202;115372;-74
2021/07/24 22:18:15;;;;;;;14.03;8.43;;;;;;;20.73;96.27;100383.75;714577;1205;114473;-74
2021/07/24 22:33:17;;;;;;;16.65;8.40;;;;;;;20.65;95.87;100382.05;714708;1200;114554;-74
2021/07/24 22:48:19;;;;;;;9.88;6.30;;;;;;;20.50;95.98;100358.22;715071;1201;115330;-74
2021/07/24 23:03:21;;;;;;;11.53;6.38;;;;;;;20.27;96.72;100375.34;714179;1206;115272;-73
2021/07/24 23:18:24;;;;;;;9.35;6.50;;;;;;;19.97;97.58;100369.42;714809;1201;114342;-75
2021/07/24 23:33:26;;;;;;;10.90;7.20;;;;;;;19.70;99.11;100382.49;714557;1177;114112;-75
2021/07/24 23:48:29;;;;;;;11.43;7.27;;;;;;;19.56;100.00;100383.43;714806;1203;114126;-76
